Ledyard, CT (06338)

8:40 AM EDT on September 03, 2015 (GMT -0400)
Milltown Rd | | Change Station
CLOSE
Current Station
Personal Weather Station
Location: North Stonington, CT
Elevation: 249 ft
Nearby Weather Stations

Elev 249 ft 41.47 °N, 71.94 °W | Updated 5 seconds ago

Clear
Clear
68.5 °F
Feels Like 68.5 °F
N
0.0
Wind Variable Wind from SE
Gusts 0.0 mph

Today
High -- | Low -- °F
--% Chance of Precip.
Yesterday
High -- | Low -- °F
Precip. -- in
6:15 AM 7:17 PM
Waning Gibbous, 70% visible
Pressure 29.86 in
Visibility 7.0 miles
Clouds Clear
Dew Point 68 °F
Humidity 97%
Rainfall 0.00 in
Snow Depth Not available.
UV 1 out of 12
Pollen 7.90 out of 12
Air Quality Not available.
Flu Activity Not available.
METAR KGON 031156Z 00000KT 7SM CLR 22/20 A2986 RMK AO2 SLP112 T02220200 10222 20178 53006
Pressure 29.86 in
Visibility 7.0 miles
Clouds Clear
Dew Point 68 °F
Humidity 97%
Rainfall 0.00 in
Snow Depth Not available.
UV 1 out of 12
Pollen 7.90 out of 12
Air Quality Not available.
Flu Activity Not available.
METAR KGON 031156Z 00000KT 7SM CLR 22/20 A2986 RMK AO2 SLP112 T02220200 10222 20178 53006

10-Day Weather Forecast

×

Almanac

Astronomy

Sep. 03, 2015 Rise Set
Actual Time
Civil Twilight
Nautical Twilight
Astronomical Twilight
Moon
Length of Visible Light
Length of Day
Tomorrow will be .
, % of the Moon is Illuminated

Today's Extremes

State Highs State Lows

Community

WunderPhotos

Upload Photos

1,851,946 photos uploaded!

WunderBlogs® & News

Nearby

Air Quality

  Air Quality AQ Index Pollutant
Not available.

Snow Depth

Station Depth Elevation

Earthquake Activity

City Distance Mag. Time & Date
Minimum magnitude displayed is 2.5.

Coastal Water Temperatures

Place Temperature

Stations

Nearby Weather Stations

Station Location Temp. Windchill Dew Point Humidity Wind Precip. Elev Updated Type